KAC107 TIST-TNCM
Flight info
| Callsign | KAC107 |
|---|---|
| Flight time | 0h 52m |
| Altitude | 9000 |
| Route | DCT STT A638 PJM DCT |
| Aircraft | DA42/L-SBDGRY/S |
Departure
| Time | 2026-04-26 01:08 |
|---|---|
| Airport | Cyril E. King Airport (TIST) |
Arrival
| Time | 2026-04-26 02:01 |
|---|---|
| Airport | Princess Juliana International Airport (TNCM) |
| Time | Latitude | Longitude | Altitude | Speed | Heading |
|---|---|---|---|---|---|
| 2026-04-26 00:59 | 18.33888 | -64.96748 | 28 ft | 0 kts | 20° |
| 2026-04-26 01:05 | 18.33903 | -64.96734 | 28 ft | 7 kts | 55° |
| 2026-04-26 01:06 | 18.33909 | -64.96677 | 28 ft | 9 kts | 91° |
| 2026-04-26 01:06 | 18.33910 | -64.96567 | 30 ft | 21 kts | 89° |
| 2026-04-26 01:06 | 18.33915 | -64.96447 | 30 ft | 28 kts | 88° |
| 2026-04-26 01:06 | 18.33870 | -64.96339 | 28 ft | 9 kts | 178° |
| 2026-04-26 01:07 | 18.33791 | -64.96341 | 24 ft | 11 kts | 209° |
| 2026-04-26 01:07 | 18.33778 | -64.96388 | 24 ft | 9 kts | 269° |
| 2026-04-26 01:07 | 18.33778 | -64.96400 | 24 ft | 0 kts | 271° |
| 2026-04-26 01:07 | 18.33762 | -64.96540 | 26 ft | 51 kts | 267° |
| 2026-04-26 01:08 | 18.33745 | -64.97087 | 126 ft | 86 kts | 268° |
| 2026-04-26 01:08 | 18.33770 | -64.97748 | 344 ft | 97 kts | 270° |
| 2026-04-26 01:08 | 18.33839 | -64.98458 | 627 ft | 100 kts | 286° |
| 2026-04-26 01:08 | 18.34247 | -64.99004 | 937 ft | 100 kts | 313° |
| 2026-04-26 01:09 | 18.34611 | -64.99653 | 1119 ft | 109 kts | 281° |
| 2026-04-26 01:09 | 18.34926 | -65.00379 | 1408 ft | 112 kts | 311° |
| 2026-04-26 01:09 | 18.35610 | -65.00752 | 1646 ft | 114 kts | 356° |
| 2026-04-26 01:09 | 18.36340 | -65.00529 | 1798 ft | 111 kts | 41° |
| 2026-04-26 01:10 | 18.36747 | -64.99891 | 1909 ft | 106 kts | 75° |
| 2026-04-26 01:10 | 18.36863 | -64.99132 | 2072 ft | 106 kts | 83° |
| 2026-04-26 01:10 | 18.37058 | -64.98370 | 2153 ft | 107 kts | 77° |
| 2026-04-26 01:10 | 18.37287 | -64.97623 | 2280 ft | 108 kts | 75° |
| 2026-04-26 01:11 | 18.37535 | -64.96876 | 2427 ft | 108 kts | 75° |
| 2026-04-26 01:11 | 18.37787 | -64.96129 | 2583 ft | 109 kts | 74° |
| 2026-04-26 01:11 | 18.38043 | -64.95380 | 2733 ft | 108 kts | 73° |
| 2026-04-26 01:11 | 18.38302 | -64.94632 | 2875 ft | 109 kts | 73° |
| 2026-04-26 01:12 | 18.38560 | -64.93882 | 3013 ft | 109 kts | 73° |
| 2026-04-26 01:12 | 18.38820 | -64.93129 | 3149 ft | 109 kts | 73° |
| 2026-04-26 01:12 | 18.39081 | -64.92377 | 3411 ft | 110 kts | 73° |
| 2026-04-26 01:12 | 18.39343 | -64.91621 | 3690 ft | 110 kts | 73° |
| 2026-04-26 01:13 | 18.39607 | -64.90860 | 3955 ft | 108 kts | 72° |
| 2026-04-26 01:13 | 18.39874 | -64.90094 | 4160 ft | 112 kts | 73° |
| 2026-04-26 01:13 | 18.40141 | -64.89320 | 4420 ft | 113 kts | 73° |
| 2026-04-26 01:13 | 18.40409 | -64.88543 | 4658 ft | 114 kts | 73° |
| 2026-04-26 01:14 | 18.40682 | -64.87755 | 4914 ft | 115 kts | 72° |
| 2026-04-26 01:14 | 18.40953 | -64.86975 | 5165 ft | 115 kts | 72° |
| 2026-04-26 01:14 | 18.41228 | -64.86181 | 5416 ft | 116 kts | 72° |
| 2026-04-26 01:14 | 18.41505 | -64.85380 | 5669 ft | 117 kts | 72° |
| 2026-04-26 01:15 | 18.41786 | -64.84570 | 5920 ft | 118 kts | 72° |
| 2026-04-26 01:15 | 18.42069 | -64.83755 | 6175 ft | 119 kts | 72° |
| 2026-04-26 01:15 | 18.42351 | -64.82938 | 6427 ft | 119 kts | 72° |
| 2026-04-26 01:15 | 18.42636 | -64.82116 | 6680 ft | 120 kts | 72° |
| 2026-04-26 01:16 | 18.42922 | -64.81291 | 6936 ft | 120 kts | 72° |
| 2026-04-26 01:16 | 18.43209 | -64.80460 | 7191 ft | 121 kts | 72° |
| 2026-04-26 01:16 | 18.43498 | -64.79625 | 7454 ft | 121 kts | 72° |
| 2026-04-26 01:16 | 18.43788 | -64.78787 | 7709 ft | 122 kts | 72° |
| 2026-04-26 01:17 | 18.44081 | -64.77943 | 7959 ft | 123 kts | 72° |
| 2026-04-26 01:17 | 18.44371 | -64.77100 | 8220 ft | 124 kts | 72° |
| 2026-04-26 01:17 | 18.44667 | -64.76245 | 8475 ft | 124 kts | 72° |
| 2026-04-26 01:17 | 18.44965 | -64.75385 | 8720 ft | 125 kts | 72° |
| 2026-04-26 01:18 | 18.45264 | -64.74516 | 8980 ft | 128 kts | 71° |
| 2026-04-26 01:18 | 18.45593 | -64.73559 | 8996 ft | 149 kts | 72° |
| 2026-04-26 01:18 | 18.45958 | -64.72494 | 9008 ft | 160 kts | 72° |
| 2026-04-26 01:18 | 18.46354 | -64.71348 | 9007 ft | 171 kts | 71° |
| 2026-04-26 01:19 | 18.46771 | -64.70145 | 9004 ft | 178 kts | 71° |
| 2026-04-26 01:19 | 18.47203 | -64.68901 | 9004 ft | 183 kts | 71° |
| 2026-04-26 01:19 | 18.47635 | -64.67651 | 9001 ft | 185 kts | 71° |
| 2026-04-26 01:19 | 18.48077 | -64.66372 | 9006 ft | 185 kts | 71° |
| 2026-04-26 01:20 | 18.48519 | -64.65090 | 9009 ft | 187 kts | 71° |
| 2026-04-26 01:20 | 18.48964 | -64.63801 | 9002 ft | 187 kts | 71° |
| 2026-04-26 01:20 | 18.49410 | -64.62509 | 8999 ft | 187 kts | 71° |
| 2026-04-26 01:20 | 18.49853 | -64.61222 | 8993 ft | 184 kts | 71° |
| 2026-04-26 01:21 | 18.50276 | -64.59996 | 8993 ft | 176 kts | 71° |
| 2026-04-26 01:21 | 18.50689 | -64.58799 | 8997 ft | 171 kts | 71° |
| 2026-04-26 01:21 | 18.51093 | -64.57625 | 8997 ft | 169 kts | 71° |
| 2026-04-26 01:21 | 18.51492 | -64.56468 | 8997 ft | 167 kts | 71° |
| 2026-04-26 01:22 | 18.51889 | -64.55316 | 8992 ft | 167 kts | 71° |
| 2026-04-26 01:22 | 18.52286 | -64.54166 | 8994 ft | 166 kts | 71° |
| 2026-04-26 01:22 | 18.52679 | -64.53024 | 8994 ft | 166 kts | 72° |
| 2026-04-26 01:22 | 18.53071 | -64.51881 | 8994 ft | 165 kts | 72° |
| 2026-04-26 01:23 | 18.53458 | -64.50757 | 8994 ft | 165 kts | 72° |
| 2026-04-26 01:23 | 18.53848 | -64.49621 | 8995 ft | 165 kts | 71° |
| 2026-04-26 01:23 | 18.54239 | -64.48486 | 8995 ft | 165 kts | 72° |
| 2026-04-26 01:23 | 18.54629 | -64.47352 | 8995 ft | 164 kts | 72° |
| 2026-04-26 01:24 | 18.55019 | -64.46218 | 8994 ft | 165 kts | 72° |
| 2026-04-26 01:24 | 18.55409 | -64.45081 | 8994 ft | 164 kts | 72° |
| 2026-04-26 01:24 | 18.55801 | -64.43944 | 8993 ft | 164 kts | 72° |
| 2026-04-26 01:24 | 18.56190 | -64.42811 | 8993 ft | 164 kts | 72° |
| 2026-04-26 01:25 | 18.56584 | -64.41664 | 8995 ft | 167 kts | 72° |
| 2026-04-26 01:25 | 18.56981 | -64.40505 | 9000 ft | 169 kts | 72° |
| 2026-04-26 01:25 | 18.57382 | -64.39337 | 9000 ft | 170 kts | 72° |
| 2026-04-26 01:25 | 18.57786 | -64.38159 | 8999 ft | 171 kts | 72° |
| 2026-04-26 01:26 | 18.58187 | -64.36990 | 8995 ft | 172 kts | 72° |
| 2026-04-26 01:26 | 18.58596 | -64.35800 | 8998 ft | 173 kts | 71° |
| 2026-04-26 01:26 | 18.59005 | -64.34610 | 8998 ft | 173 kts | 72° |
| 2026-04-26 01:26 | 18.59414 | -64.33416 | 8997 ft | 173 kts | 72° |
| 2026-04-26 01:27 | 18.59823 | -64.32222 | 8995 ft | 173 kts | 72° |
| 2026-04-26 01:27 | 18.60233 | -64.31027 | 9000 ft | 173 kts | 72° |
| 2026-04-26 01:27 | 18.60642 | -64.29834 | 9001 ft | 173 kts | 72° |
| 2026-04-26 01:27 | 18.61027 | -64.28634 | 8991 ft | 172 kts | 81° |
| 2026-04-26 01:28 | 18.60865 | -64.27421 | 9001 ft | 166 kts | 118° |
| 2026-04-26 01:28 | 18.60343 | -64.26336 | 9003 ft | 166 kts | 119° |
| 2026-04-26 01:28 | 18.59869 | -64.25235 | 9011 ft | 167 kts | 116° |
| 2026-04-26 01:28 | 18.59439 | -64.24091 | 9003 ft | 168 kts | 114° |
| 2026-04-26 01:29 | 18.59028 | -64.22937 | 9004 ft | 169 kts | 113° |
| 2026-04-26 01:29 | 18.58617 | -64.21772 | 9005 ft | 170 kts | 113° |
| 2026-04-26 01:29 | 18.58200 | -64.20599 | 9011 ft | 171 kts | 113° |
| 2026-04-26 01:29 | 18.57781 | -64.19420 | 9003 ft | 172 kts | 113° |
| 2026-04-26 01:30 | 18.57365 | -64.18248 | 9001 ft | 173 kts | 113° |
| 2026-04-26 01:30 | 18.56942 | -64.17060 | 9008 ft | 173 kts | 113° |
| 2026-04-26 01:30 | 18.56519 | -64.15868 | 9003 ft | 173 kts | 113° |
| 2026-04-26 01:30 | 18.56095 | -64.14676 | 9003 ft | 174 kts | 113° |
| 2026-04-26 01:31 | 18.55670 | -64.13481 | 9000 ft | 174 kts | 113° |
| 2026-04-26 01:31 | 18.55244 | -64.12285 | 9001 ft | 174 kts | 113° |
| 2026-04-26 01:31 | 18.54814 | -64.11094 | 8999 ft | 173 kts | 116° |
| 2026-04-26 01:31 | 18.54291 | -64.09953 | 9001 ft | 173 kts | 120° |
| 2026-04-26 01:32 | 18.53747 | -64.08820 | 9001 ft | 173 kts | 119° |
| 2026-04-26 01:32 | 18.53217 | -64.07682 | 9002 ft | 173 kts | 119° |
| 2026-04-26 01:32 | 18.52699 | -64.06554 | 9003 ft | 173 kts | 118° |
| 2026-04-26 01:32 | 18.52177 | -64.05411 | 9002 ft | 173 kts | 118° |
| 2026-04-26 01:33 | 18.51652 | -64.04264 | 9001 ft | 175 kts | 118° |
| 2026-04-26 01:33 | 18.51119 | -64.03100 | 9005 ft | 177 kts | 118° |
| 2026-04-26 01:33 | 18.50594 | -64.01954 | 9001 ft | 179 kts | 118° |
| 2026-04-26 01:33 | 18.50050 | -64.00769 | 9001 ft | 180 kts | 118° |
| 2026-04-26 01:34 | 18.49506 | -63.99581 | 9001 ft | 180 kts | 118° |
| 2026-04-26 01:34 | 18.48960 | -63.98391 | 9001 ft | 180 kts | 118° |
| 2026-04-26 01:34 | 18.48415 | -63.97202 | 9001 ft | 180 kts | 118° |
| 2026-04-26 01:34 | 18.47870 | -63.96013 | 9001 ft | 180 kts | 118° |
| 2026-04-26 01:35 | 18.47323 | -63.94822 | 9001 ft | 180 kts | 118° |
| 2026-04-26 01:35 | 18.46784 | -63.93646 | 9001 ft | 180 kts | 118° |
| 2026-04-26 01:35 | 18.46237 | -63.92455 | 9001 ft | 180 kts | 118° |
| 2026-04-26 01:35 | 18.45690 | -63.91264 | 9000 ft | 180 kts | 118° |
| 2026-04-26 01:36 | 18.45143 | -63.90073 | 9000 ft | 180 kts | 118° |
| 2026-04-26 01:36 | 18.44596 | -63.88882 | 9001 ft | 180 kts | 118° |
| 2026-04-26 01:36 | 18.44057 | -63.87709 | 9000 ft | 180 kts | 118° |
| 2026-04-26 01:37 | 18.42966 | -63.85333 | 9001 ft | 180 kts | 118° |
| 2026-04-26 01:37 | 18.42419 | -63.84143 | 9001 ft | 180 kts | 118° |
| 2026-04-26 01:37 | 18.41872 | -63.82954 | 9001 ft | 180 kts | 118° |
| 2026-04-26 01:37 | 18.41325 | -63.81764 | 9001 ft | 180 kts | 118° |
| 2026-04-26 01:38 | 18.40779 | -63.80578 | 9000 ft | 180 kts | 118° |
| 2026-04-26 01:38 | 18.40233 | -63.79390 | 9000 ft | 180 kts | 118° |
| 2026-04-26 01:38 | 18.39686 | -63.78202 | 9001 ft | 180 kts | 118° |
| 2026-04-26 01:38 | 18.39140 | -63.77015 | 9000 ft | 180 kts | 118° |
| 2026-04-26 01:39 | 18.38593 | -63.75826 | 9001 ft | 180 kts | 118° |
| 2026-04-26 01:39 | 18.38046 | -63.74637 | 9000 ft | 180 kts | 118° |
| 2026-04-26 01:39 | 18.37505 | -63.73463 | 9001 ft | 180 kts | 118° |
| 2026-04-26 01:39 | 18.36958 | -63.72276 | 9001 ft | 180 kts | 118° |
| 2026-04-26 01:40 | 18.36408 | -63.71082 | 8941 ft | 183 kts | 118° |
| 2026-04-26 01:40 | 18.35855 | -63.69883 | 8789 ft | 181 kts | 118° |
| 2026-04-26 01:40 | 18.35308 | -63.68696 | 8610 ft | 180 kts | 118° |
| 2026-04-26 01:40 | 18.34776 | -63.67541 | 8563 ft | 169 kts | 119° |
| 2026-04-26 01:41 | 18.34270 | -63.66440 | 8473 ft | 162 kts | 119° |
| 2026-04-26 01:41 | 18.33793 | -63.65404 | 8476 ft | 153 kts | 119° |
| 2026-04-26 01:41 | 18.33340 | -63.64422 | 8474 ft | 146 kts | 119° |
| 2026-04-26 01:41 | 18.32903 | -63.63475 | 8469 ft | 141 kts | 120° |
| 2026-04-26 01:42 | 18.32473 | -63.62544 | 8413 ft | 142 kts | 120° |
| 2026-04-26 01:42 | 18.32042 | -63.61611 | 8363 ft | 142 kts | 120° |
| 2026-04-26 01:42 | 18.31612 | -63.60679 | 8314 ft | 141 kts | 120° |
| 2026-04-26 01:42 | 18.31183 | -63.59750 | 8262 ft | 142 kts | 119° |
| 2026-04-26 01:43 | 18.30759 | -63.58830 | 8219 ft | 141 kts | 120° |
| 2026-04-26 01:43 | 18.30330 | -63.57902 | 8168 ft | 141 kts | 120° |
| 2026-04-26 01:43 | 18.29903 | -63.56975 | 8117 ft | 141 kts | 120° |
| 2026-04-26 01:43 | 18.29474 | -63.56048 | 8062 ft | 141 kts | 120° |
| 2026-04-26 01:44 | 18.29046 | -63.55122 | 8009 ft | 140 kts | 120° |
| 2026-04-26 01:44 | 18.28619 | -63.54196 | 7956 ft | 141 kts | 120° |
| 2026-04-26 01:44 | 18.28192 | -63.53273 | 7903 ft | 140 kts | 120° |
| 2026-04-26 01:44 | 18.27766 | -63.52351 | 7847 ft | 140 kts | 120° |
| 2026-04-26 01:45 | 18.27339 | -63.51429 | 7793 ft | 140 kts | 120° |
| 2026-04-26 01:45 | 18.26931 | -63.50544 | 7745 ft | 141 kts | 120° |
| 2026-04-26 01:45 | 18.26499 | -63.49610 | 7750 ft | 143 kts | 120° |
| 2026-04-26 01:45 | 18.26063 | -63.48666 | 7752 ft | 144 kts | 119° |
| 2026-04-26 01:46 | 18.25622 | -63.47713 | 7754 ft | 145 kts | 119° |
| 2026-04-26 01:46 | 18.25180 | -63.46758 | 7756 ft | 146 kts | 119° |
| 2026-04-26 01:46 | 18.24736 | -63.45797 | 7757 ft | 146 kts | 119° |
| 2026-04-26 01:46 | 18.24291 | -63.44835 | 7757 ft | 147 kts | 119° |
| 2026-04-26 01:47 | 18.23844 | -63.43869 | 7719 ft | 149 kts | 119° |
| 2026-04-26 01:47 | 18.23389 | -63.42890 | 7593 ft | 150 kts | 119° |
| 2026-04-26 01:47 | 18.22935 | -63.41911 | 7467 ft | 148 kts | 119° |
| 2026-04-26 01:47 | 18.22485 | -63.40948 | 7340 ft | 145 kts | 122° |
| 2026-04-26 01:48 | 18.21940 | -63.40069 | 7214 ft | 142 kts | 127° |
| 2026-04-26 01:48 | 18.21390 | -63.39209 | 7089 ft | 141 kts | 127° |
| 2026-04-26 01:48 | 18.20843 | -63.38356 | 6963 ft | 140 kts | 127° |
| 2026-04-26 01:48 | 18.20303 | -63.37514 | 6838 ft | 138 kts | 127° |
| 2026-04-26 01:49 | 18.19768 | -63.36680 | 6712 ft | 137 kts | 127° |
| 2026-04-26 01:49 | 18.19236 | -63.35850 | 6586 ft | 136 kts | 127° |
| 2026-04-26 01:49 | 18.18708 | -63.35026 | 6461 ft | 135 kts | 127° |
| 2026-04-26 01:49 | 18.18185 | -63.34210 | 6334 ft | 134 kts | 127° |
| 2026-04-26 01:50 | 18.17667 | -63.33403 | 6209 ft | 133 kts | 127° |
| 2026-04-26 01:50 | 18.17154 | -63.32602 | 6083 ft | 132 kts | 127° |
| 2026-04-26 01:50 | 18.16643 | -63.31805 | 5956 ft | 131 kts | 127° |
| 2026-04-26 01:50 | 18.16133 | -63.31011 | 5832 ft | 131 kts | 127° |
| 2026-04-26 01:51 | 18.15626 | -63.30219 | 5707 ft | 130 kts | 127° |
| 2026-04-26 01:51 | 18.15119 | -63.29429 | 5582 ft | 130 kts | 127° |
| 2026-04-26 01:51 | 18.14615 | -63.28644 | 5456 ft | 129 kts | 127° |
| 2026-04-26 01:51 | 18.14110 | -63.27857 | 5331 ft | 130 kts | 127° |
| 2026-04-26 01:52 | 18.13470 | -63.27212 | 5139 ft | 129 kts | 152° |
| 2026-04-26 01:52 | 18.12649 | -63.26976 | 4782 ft | 119 kts | 180° |
| 2026-04-26 01:52 | 18.11874 | -63.27145 | 4430 ft | 112 kts | 204° |
| 2026-04-26 01:52 | 18.11201 | -63.27507 | 4077 ft | 106 kts | 205° |
| 2026-04-26 01:53 | 18.10539 | -63.27833 | 3726 ft | 104 kts | 202° |
| 2026-04-26 01:53 | 18.09875 | -63.28123 | 3377 ft | 103 kts | 200° |
| 2026-04-26 01:53 | 18.09205 | -63.28380 | 3029 ft | 101 kts | 197° |
| 2026-04-26 01:53 | 18.08537 | -63.28597 | 2696 ft | 101 kts | 193° |
| 2026-04-26 01:54 | 18.07858 | -63.28781 | 2345 ft | 101 kts | 191° |
| 2026-04-26 01:54 | 18.07176 | -63.28939 | 1995 ft | 101 kts | 189° |
| 2026-04-26 01:54 | 18.06479 | -63.29066 | 1685 ft | 99 kts | 184° |
| 2026-04-26 01:54 | 18.05790 | -63.29087 | 1368 ft | 100 kts | 173° |
| 2026-04-26 01:55 | 18.05134 | -63.28873 | 1542 ft | 89 kts | 139° |
| 2026-04-26 01:55 | 18.04718 | -63.28344 | 1589 ft | 98 kts | 122° |
| 2026-04-26 01:55 | 18.04475 | -63.27640 | 1610 ft | 109 kts | 99° |
| 2026-04-26 01:55 | 18.04462 | -63.27086 | 1607 ft | 116 kts | 86° |
| 2026-04-26 01:56 | 18.04661 | -63.26256 | 1604 ft | 122 kts | 75° |
| 2026-04-26 01:56 | 18.04465 | -63.25398 | 1482 ft | 127 kts | 126° |
| 2026-04-26 01:56 | 18.03924 | -63.24690 | 1463 ft | 123 kts | 129° |
| 2026-04-26 01:56 | 18.03410 | -63.24001 | 1521 ft | 114 kts | 129° |
| 2026-04-26 01:57 | 18.02902 | -63.23344 | 1455 ft | 119 kts | 128° |
| 2026-04-26 01:57 | 18.02462 | -63.22624 | 1485 ft | 113 kts | 114° |
| 2026-04-26 01:57 | 18.02294 | -63.21860 | 1591 ft | 104 kts | 93° |
| 2026-04-26 01:57 | 18.02409 | -63.21097 | 1596 ft | 108 kts | 72° |
| 2026-04-26 01:58 | 18.02791 | -63.20407 | 1597 ft | 112 kts | 52° |
| 2026-04-26 01:58 | 18.03033 | -63.19666 | 1382 ft | 124 kts | 102° |
| 2026-04-26 01:58 | 18.02935 | -63.18796 | 1462 ft | 114 kts | 88° |
| 2026-04-26 01:58 | 18.03112 | -63.18021 | 1571 ft | 105 kts | 68° |
| 2026-04-26 01:59 | 18.03343 | -63.17292 | 1405 ft | 112 kts | 91° |
| 2026-04-26 01:59 | 18.03362 | -63.16449 | 1242 ft | 117 kts | 88° |
| 2026-04-26 01:59 | 18.03456 | -63.15570 | 1033 ft | 124 kts | 82° |
| 2026-04-26 01:59 | 18.03600 | -63.14673 | 849 ft | 124 kts | 82° |
| 2026-04-26 02:00 | 18.03768 | -63.13781 | 697 ft | 119 kts | 81° |
| 2026-04-26 02:00 | 18.03867 | -63.12987 | 432 ft | 111 kts | 86° |
| 2026-04-26 02:00 | 18.03948 | -63.12189 | 198 ft | 109 kts | 86° |
| 2026-04-26 02:00 | 18.04016 | -63.11507 | 22 ft | 72 kts | 82° |
| 2026-04-26 02:01 | 18.04061 | -63.11210 | 22 ft | 22 kts | 81° |
| 2026-04-26 02:01 | 18.04100 | -63.11154 | 22 ft | 10 kts | 326° |
| 2026-04-26 02:01 | 18.04157 | -63.11151 | 23 ft | 9 kts | 64° |
| 2026-04-26 02:01 | 18.04177 | -63.11106 | 23 ft | 6 kts | 10° |
| 2026-04-26 02:02 | 18.04212 | -63.11107 | 23 ft | 6 kts | 354° |
| 2026-04-26 02:02 | 18.04232 | -63.11137 | 23 ft | 6 kts | 245° |
| 2026-04-26 02:02 | 18.04220 | -63.11183 | 23 ft | 7 kts | 242° |
| 2026-04-26 02:02 | 18.04195 | -63.11179 | 23 ft | 3 kts | 174° |
| 2026-04-26 02:03 | 18.04184 | -63.11177 | 23 ft | 1 kts | 171° |
| 2026-04-26 02:03 | 18.04182 | -63.11177 | 23 ft | 1 kts | 171° |